createdAt,value
2022-11-29T00:01:37.035Z,101102.38
2022-11-29T00:04:09.724Z,101089.88
2022-11-29T00:06:37.879Z,101098.50
2022-11-29T00:09:11.465Z,101097.88
2022-11-29T00:11:57.743Z,101103.44
2022-11-29T00:14:27.099Z,101096.84
2022-11-29T00:16:57.617Z,101090.19
2022-11-29T00:19:27.059Z,101092.38
2022-11-29T00:21:55.152Z,101097.31
2022-11-29T00:24:23.380Z,101098.28
2022-11-29T00:26:51.350Z,101091.19
2022-11-29T00:29:19.826Z,101090.69
2022-11-29T00:31:47.758Z,101100.41
2022-11-29T00:34:15.865Z,101099.59
2022-11-29T00:36:45.250Z,101105.84
2022-11-29T00:39:13.646Z,101097.88
2022-11-29T00:41:41.606Z,101099.91
2022-11-29T00:44:12.817Z,101095.66
2022-11-29T00:46:43.310Z,101091.97
2022-11-29T00:49:11.255Z,101092.34
2022-11-29T00:51:39.528Z,101091.28
2022-11-29T00:54:08.831Z,101091.88
2022-11-29T00:56:36.933Z,101094.84
2022-11-29T00:59:07.376Z,101099.66
2022-11-29T01:01:35.516Z,101103.63
2022-11-29T01:04:03.876Z,101101.59
2022-11-29T01:06:31.955Z,101104.91
2022-11-29T01:08:59.910Z,101094.31
2022-11-29T01:11:29.371Z,101100.53
2022-11-29T01:13:58.908Z,101090.38
2022-11-29T01:16:28.352Z,101096.41
2022-11-29T01:18:56.622Z,101099.25
2022-11-29T01:21:25.630Z,101098.41
2022-11-29T01:23:54.442Z,101093.47
2022-11-29T01:26:24.336Z,101097.78
2022-11-29T01:28:55.720Z,101097.53
2022-11-29T01:31:25.630Z,101106.41
2022-11-29T01:33:54.836Z,101105.75
2022-11-29T01:36:22.748Z,101097.41
2022-11-29T01:38:50.693Z,101096.81
2022-11-29T01:41:21.934Z,101103.50
2022-11-29T01:44:01.116Z,101100.97
2022-11-29T01:46:30.895Z,101097.72
2022-11-29T01:49:04.158Z,101101.03
2022-11-29T01:51:33.833Z,101101.47
2022-11-29T01:54:03.692Z,101105.25
2022-11-29T01:56:35.679Z,101100.16
2022-11-29T01:59:08.964Z,101095.19
2022-11-29T02:01:37.744Z,101096.97
2022-11-29T02:04:07.099Z,101094.56
2022-11-29T02:06:36.243Z,101097.38
2022-11-29T02:09:05.382Z,101094.16
2022-11-29T02:11:56.130Z,101095.66
2022-11-29T02:14:48.567Z,101088.69
2022-11-29T02:17:26.036Z,101092.31
2022-11-29T02:20:18.952Z,101094.31
2022-11-29T02:22:57.391Z,101103.28
2022-11-29T02:25:50.417Z,101100.09
2022-11-29T02:28:49.412Z,101103.66
2022-11-29T02:32:10.453Z,101102.16
2022-11-29T02:34:54.462Z,101095.34
2022-11-29T02:37:39.424Z,101108.50
2022-11-29T02:40:13.219Z,101104.56
2022-11-29T02:43:15.581Z,101104.91
2022-11-29T02:45:55.750Z,101104.03
2022-11-29T02:48:45.844Z,101106.25
2022-11-29T02:51:23.330Z,101112.44
2022-11-29T02:53:58.202Z,101119.16
2022-11-29T02:56:33.030Z,101110.59
2022-11-29T02:59:07.194Z,101116.47
2022-11-29T03:01:45.739Z,101116.22
2022-11-29T03:04:22.845Z,101115.19
2022-11-29T03:06:59.692Z,101113.97
2022-11-29T03:09:38.198Z,101117.81
2022-11-29T03:12:17.251Z,101119.97
2022-11-29T03:14:56.915Z,101124.13
2022-11-29T03:17:37.824Z,101129.72
2022-11-29T03:20:30.001Z,101123.28
2022-11-29T03:23:22.560Z,101128.81
2022-11-29T03:25:56.435Z,101127.19
2022-11-29T03:28:30.481Z,101132.22
2022-11-29T03:31:08.235Z,101130.94
2022-11-29T03:33:44.154Z,101134.88
2022-11-29T03:36:21.543Z,101135.28
2022-11-29T03:38:56.054Z,101134.28
2022-11-29T03:41:29.425Z,101137.88
2022-11-29T03:44:02.077Z,101137.28
2022-11-29T03:46:36.156Z,101144.03
2022-11-29T03:49:10.873Z,101143.97
2022-11-29T03:52:00.616Z,101138.25
2022-11-29T03:54:39.749Z,101149.63
2022-11-29T03:57:08.127Z,101144.59
2022-11-29T03:59:52.927Z,101146.00
2022-11-29T04:02:54.046Z,101143.28
2022-11-29T04:06:09.940Z,101139.06
2022-11-29T04:08:52.614Z,101141.59
2022-11-29T04:11:58.758Z,101139.34
2022-11-29T04:14:35.178Z,101138.41
2022-11-29T04:17:33.999Z,101135.66
2022-11-29T04:20:21.295Z,101141.56
2022-11-29T04:23:21.344Z,101148.84
2022-11-29T04:26:17.814Z,101145.22
2022-11-29T04:29:13.947Z,101146.94
2022-11-29T04:31:57.869Z,101146.47
2022-11-29T04:34:46.341Z,101145.97
2022-11-29T04:37:37.148Z,101152.34
2022-11-29T04:40:24.447Z,101151.66
2022-11-29T04:43:12.821Z,101149.16
2022-11-29T04:46:10.879Z,101151.09
2022-11-29T04:49:04.911Z,101157.34
2022-11-29T04:51:51.488Z,101153.81
2022-11-29T04:54:29.557Z,101150.78
2022-11-29T04:57:07.085Z,101157.03
2022-11-29T04:59:44.233Z,101161.56
2022-11-29T05:02:24.807Z,101157.09
2022-11-29T05:05:03.784Z,101163.28
2022-11-29T05:07:42.643Z,101163.44
2022-11-29T05:10:23.795Z,101164.28
2022-11-29T05:13:04.401Z,101162.81
2022-11-29T05:15:51.090Z,101166.44
2022-11-29T05:18:34.205Z,101168.16
2022-11-29T05:21:10.325Z,101164.84
2022-11-29T05:23:49.659Z,101169.78
2022-11-29T05:26:23.961Z,101177.22
2022-11-29T05:29:02.634Z,101181.88
2022-11-29T05:31:49.469Z,101193.56
2022-11-29T05:34:40.102Z,101190.91
2022-11-29T05:37:23.961Z,101184.72
2022-11-29T05:40:15.735Z,101195.19
2022-11-29T05:43:06.831Z,101199.28
2022-11-29T05:45:42.021Z,101200.75
2022-11-29T05:48:18.431Z,101200.72
2022-11-29T05:50:57.841Z,101195.19
2022-11-29T05:53:31.053Z,101202.19
2022-11-29T05:56:06.843Z,101205.06
2022-11-29T05:58:49.196Z,101204.66
2022-11-29T06:01:23.413Z,101211.72
2022-11-29T06:04:01.136Z,101205.53
2022-11-29T06:06:44.243Z,101211.41
2022-11-29T06:09:19.016Z,101220.34
2022-11-29T06:11:50.840Z,101223.03
2022-11-29T06:14:38.804Z,101221.97
2022-11-29T06:17:37.294Z,101216.84
2022-11-29T06:20:38.692Z,101229.41
2022-11-29T06:23:36.144Z,101225.56
2022-11-29T06:26:19.491Z,101236.47
2022-11-29T06:29:02.655Z,101240.78
2022-11-29T06:31:37.774Z,101237.00
2022-11-29T06:34:15.477Z,101246.75
2022-11-29T06:36:48.598Z,101245.94
2022-11-29T06:39:18.476Z,101242.03
2022-11-29T06:41:47.018Z,101250.41
2022-11-29T06:44:15.503Z,101250.56
2022-11-29T06:46:48.164Z,101243.22
2022-11-29T06:49:26.169Z,101260.72
2022-11-29T06:52:05.161Z,101260.72
2022-11-29T06:54:48.940Z,101263.38
2022-11-29T06:57:25.553Z,101268.41
2022-11-29T07:03:07.794Z,101274.16
2022-11-29T07:05:36.955Z,101270.44
2022-11-29T07:08:07.841Z,101269.47
2022-11-29T07:10:41.715Z,101272.75
2022-11-29T07:13:13.341Z,101269.63
2022-11-29T07:15:48.340Z,101273.66
2022-11-29T07:18:29.408Z,101283.44
2022-11-29T07:21:07.813Z,101274.25
2022-11-29T07:23:39.482Z,101280.03
2022-11-29T07:26:21.847Z,101276.13
2022-11-29T07:29:02.668Z,101280.25
2022-11-29T07:31:42.271Z,101287.94
2022-11-29T07:34:22.466Z,101281.53
2022-11-29T07:37:01.417Z,101283.47
2022-11-29T07:39:41.914Z,101292.00
2022-11-29T07:42:20.611Z,101299.03
2022-11-29T07:44:59.706Z,101292.59
2022-11-29T07:47:32.576Z,101298.25
2022-11-29T07:50:03.305Z,101306.13
2022-11-29T07:52:31.319Z,101296.66
2022-11-29T07:55:01.438Z,101307.81
2022-11-29T07:57:30.890Z,101308.53
2022-11-29T07:59:59.013Z,101314.13
2022-11-29T08:02:31.363Z,101316.91
2022-11-29T08:05:01.158Z,101309.66
2022-11-29T08:07:29.982Z,101312.22
2022-11-29T08:09:58.436Z,101316.31
2022-11-29T08:12:27.164Z,101317.03
2022-11-29T08:14:57.325Z,101318.00
2022-11-29T08:17:26.158Z,101309.56
2022-11-29T08:19:54.550Z,101327.13
2022-11-29T08:22:22.648Z,101317.44
2022-11-29T08:24:50.792Z,101321.44
2022-11-29T08:27:18.979Z,101318.88
2022-11-29T08:29:47.343Z,101325.25
2022-11-29T08:32:17.075Z,101332.00
2022-11-29T08:34:45.828Z,101331.53
2022-11-29T08:37:14.274Z,101330.06
2022-11-29T08:39:42.751Z,101327.22
2022-11-29T08:42:11.188Z,101325.75
2022-11-29T08:44:39.440Z,101329.09
2022-11-29T08:47:27.720Z,101325.97
2022-11-29T08:50:03.368Z,101334.44
2022-11-29T08:52:51.828Z,101333.28
2022-11-29T08:55:21.566Z,101333.94
2022-11-29T08:57:50.999Z,101334.38
2022-11-29T09:00:21.959Z,101335.81
2022-11-29T09:02:51.544Z,101329.03
2022-11-29T09:05:22.034Z,101330.81
2022-11-29T09:07:50.567Z,101334.88
2022-11-29T09:10:19.363Z,101336.81
2022-11-29T09:12:49.797Z,101337.91
2022-11-29T09:15:18.171Z,101334.41
2022-11-29T09:17:46.316Z,101349.53
2022-11-29T09:20:17.089Z,101349.59
2022-11-29T09:22:46.564Z,101347.34
2022-11-29T09:25:15.348Z,101353.91
2022-11-29T09:27:45.120Z,101357.06
2022-11-29T09:30:19.211Z,101346.44
2022-11-29T09:32:50.454Z,101359.78
2022-11-29T09:35:18.730Z,101354.69
2022-11-29T09:37:48.344Z,101349.06
2022-11-29T09:40:19.283Z,101347.28
2022-11-29T09:42:56.469Z,101349.78
2022-11-29T09:45:32.557Z,101350.44
2022-11-29T09:48:19.354Z,101360.84
2022-11-29T09:50:51.648Z,101350.72
2022-11-29T09:53:34.536Z,101364.47
2022-11-29T09:56:13.934Z,101359.09
2022-11-29T09:58:49.334Z,101347.81
2022-11-29T10:01:25.835Z,101353.59
2022-11-29T10:04:02.225Z,101355.28
2022-11-29T10:06:36.832Z,101354.72
2022-11-29T10:09:15.161Z,101361.34
2022-11-29T10:11:56.298Z,101367.34
2022-11-29T10:14:31.227Z,101362.28
2022-11-29T10:17:11.738Z,101364.69
2022-11-29T10:19:49.145Z,101364.84
2022-11-29T10:22:22.872Z,101362.31
2022-11-29T10:24:58.593Z,101360.84
2022-11-29T10:27:29.811Z,101366.25
2022-11-29T10:30:02.661Z,101361.88
2022-11-29T10:32:33.352Z,101362.59
2022-11-29T10:35:01.944Z,101367.06
2022-11-29T10:37:32.918Z,101371.72
2022-11-29T10:40:08.092Z,101373.31
2022-11-29T10:42:53.199Z,101376.25
2022-11-29T10:45:28.155Z,101376.25
2022-11-29T10:48:04.909Z,101371.59
2022-11-29T10:50:43.972Z,101367.41
2022-11-29T10:53:14.839Z,101374.50
2022-11-29T10:55:52.085Z,101378.75
2022-11-29T10:58:27.986Z,101376.78
2022-11-29T11:01:01.034Z,101377.13
2022-11-29T11:03:40.340Z,101375.41
2022-11-29T11:06:12.131Z,101379.38
2022-11-29T11:08:50.125Z,101378.94
2022-11-29T11:11:29.969Z,101380.94
2022-11-29T11:14:03.003Z,101381.91
2022-11-29T11:16:37.054Z,101379.72
2022-11-29T11:19:30.450Z,101375.50
2022-11-29T11:22:00.244Z,101392.59
2022-11-29T11:24:30.855Z,101385.66
2022-11-29T11:27:01.797Z,101378.09
2022-11-29T11:29:38.384Z,101378.81
2022-11-29T11:32:21.198Z,101379.03
2022-11-29T11:34:56.072Z,101378.88
2022-11-29T11:37:26.696Z,101385.03
2022-11-29T11:39:58.169Z,101384.22
2022-11-29T11:42:40.393Z,101383.41
2022-11-29T11:45:27.171Z,101389.00
2022-11-29T11:47:57.566Z,101386.13
2022-11-29T11:50:32.550Z,101387.03
2022-11-29T11:53:05.094Z,101385.97
2022-11-29T11:55:40.418Z,101391.53
2022-11-29T11:58:19.558Z,101388.09
2022-11-29T12:01:06.376Z,101392.22
2022-11-29T12:03:45.976Z,101390.00
2022-11-29T12:06:32.905Z,101387.47
2022-11-29T12:09:05.896Z,101392.03
2022-11-29T12:11:42.169Z,101390.69
2022-11-29T12:14:21.286Z,101391.13
2022-11-29T12:16:51.685Z,101394.81
2022-11-29T12:19:26.546Z,101403.66
2022-11-29T12:22:00.782Z,101395.06
2022-11-29T12:24:34.349Z,101389.72
2022-11-29T12:27:06.173Z,101400.81
2022-11-29T12:29:36.356Z,101397.53
2022-11-29T12:32:18.709Z,101398.72
2022-11-29T12:35:02.138Z,101399.31
2022-11-29T12:37:37.986Z,101412.56
2022-11-29T12:40:15.474Z,101410.16
2022-11-29T12:42:54.451Z,101408.53
2022-11-29T12:45:36.884Z,101408.81
2022-11-29T12:48:17.468Z,101415.25
2022-11-29T12:50:56.990Z,101416.16
2022-11-29T12:53:48.476Z,101424.47
2022-11-29T12:56:25.500Z,101426.22
2022-11-29T12:59:06.165Z,101428.41
2022-11-29T13:01:58.729Z,101429.09
2022-11-29T13:04:39.574Z,101430.53
2022-11-29T13:07:14.181Z,101428.28
2022-11-29T13:09:53.884Z,101434.50
2022-11-29T13:12:29.361Z,101436.78
2022-11-29T13:15:05.389Z,101443.59
2022-11-29T13:17:43.242Z,101438.13
2022-11-29T13:20:25.457Z,101431.16
2022-11-29T13:22:58.437Z,101440.00
2022-11-29T13:25:33.726Z,101441.75
2022-11-29T13:28:06.813Z,101440.53
2022-11-29T13:30:38.653Z,101436.66
2022-11-29T13:33:17.639Z,101435.25
2022-11-29T13:35:52.400Z,101441.38
2022-11-29T13:38:26.306Z,101447.09
2022-11-29T13:41:00.969Z,101445.47
2022-11-29T13:43:36.120Z,101449.25
2022-11-29T13:46:21.137Z,101453.72
2022-11-29T13:48:53.184Z,101450.25
2022-11-29T13:51:33.172Z,101446.66
2022-11-29T13:54:05.441Z,101446.38
2022-11-29T13:56:43.296Z,101449.69
2022-11-29T13:59:19.285Z,101448.19
2022-11-29T14:01:51.016Z,101453.69
2022-11-29T14:04:29.549Z,101452.41
2022-11-29T14:07:07.297Z,101456.91
2022-11-29T14:09:50.309Z,101456.63
2022-11-29T14:12:35.911Z,101462.13
2022-11-29T14:15:17.736Z,101458.06
2022-11-29T14:18:08.131Z,101462.13
2022-11-29T14:20:59.565Z,101457.28
2022-11-29T14:23:41.801Z,101462.28
2022-11-29T14:26:31.494Z,101470.09
2022-11-29T14:29:00.200Z,101461.56
2022-11-29T14:31:54.686Z,101459.03
2022-11-29T14:34:48.029Z,101472.56
2022-11-29T14:37:42.284Z,101472.38
2022-11-29T14:40:25.097Z,101478.81
2022-11-29T14:42:53.817Z,101474.38
2022-11-29T14:45:26.253Z,101479.00
2022-11-29T14:47:59.023Z,101486.63
2022-11-29T14:50:33.949Z,101480.69
2022-11-29T14:53:08.182Z,101487.03
2022-11-29T14:55:48.223Z,101490.25
2022-11-29T14:58:24.062Z,101489.06
2022-11-29T15:01:10.768Z,101498.69
2022-11-29T15:03:51.707Z,101488.94
2022-11-29T15:06:26.467Z,101492.81
2022-11-29T15:09:02.993Z,101491.97
2022-11-29T15:11:50.198Z,101498.97
2022-11-29T15:14:26.753Z,101496.53
2022-11-29T15:17:08.942Z,101503.97
2022-11-29T15:19:56.891Z,101502.19
2022-11-29T15:22:29.083Z,101502.09
2022-11-29T15:25:01.827Z,101504.88
2022-11-29T15:27:30.140Z,101501.63
2022-11-29T15:29:59.896Z,101505.72
2022-11-29T15:32:32.434Z,101505.38
2022-11-29T15:35:02.322Z,101516.53
2022-11-29T15:37:45.758Z,101518.13
2022-11-29T15:40:17.930Z,101519.06
2022-11-29T15:42:53.364Z,101518.81
2022-11-29T15:45:34.332Z,101521.94
2022-11-29T15:48:14.468Z,101523.75
2022-11-29T15:50:49.840Z,101524.84
2022-11-29T15:53:22.325Z,101513.78
2022-11-29T15:55:54.843Z,101525.84
2022-11-29T15:58:23.016Z,101526.53
2022-11-29T16:00:52.844Z,101533.81
2022-11-29T16:03:26.337Z,101542.69
2022-11-29T16:06:02.544Z,101538.84
2022-11-29T16:08:38.275Z,101539.66
2022-11-29T16:11:08.731Z,101540.88
2022-11-29T16:13:41.400Z,101540.25
2022-11-29T16:16:21.572Z,101548.00
2022-11-29T16:18:51.576Z,101547.97
2022-11-29T16:21:26.761Z,101552.38
2022-11-29T16:23:58.129Z,101553.03
2022-11-29T16:26:32.923Z,101554.97
2022-11-29T16:29:05.087Z,101555.66
2022-11-29T16:31:38.311Z,101554.13
2022-11-29T16:34:16.127Z,101560.94
2022-11-29T16:36:44.298Z,101563.66
2022-11-29T16:39:22.788Z,101561.03
2022-11-29T16:42:08.708Z,101565.28
2022-11-29T16:44:59.978Z,101572.34
2022-11-29T16:47:29.750Z,101570.47
2022-11-29T16:50:19.788Z,101576.13
2022-11-29T16:52:52.007Z,101572.25
2022-11-29T16:55:23.575Z,101575.91
2022-11-29T16:57:54.688Z,101576.50
2022-11-29T17:00:25.893Z,101577.34
2022-11-29T17:02:53.879Z,101575.31
2022-11-29T17:05:21.930Z,101572.41
2022-11-29T17:07:53.361Z,101576.22
2022-11-29T17:10:24.957Z,101583.50
2022-11-29T17:12:54.266Z,101583.88
2022-11-29T17:15:24.312Z,101582.28
2022-11-29T17:17:52.271Z,101589.09
2022-11-29T17:20:23.337Z,101575.44
2022-11-29T17:22:51.281Z,101586.09
2022-11-29T17:25:19.419Z,101580.88
2022-11-29T17:27:47.821Z,101585.25
2022-11-29T17:30:17.715Z,101587.00
2022-11-29T17:32:46.071Z,101585.41
2022-11-29T17:35:16.739Z,101583.34
2022-11-29T17:37:44.940Z,101593.38
2022-11-29T17:40:15.289Z,101591.41
2022-11-29T17:42:48.490Z,101595.25
2022-11-29T17:45:19.353Z,101591.00
2022-11-29T17:47:51.452Z,101597.50
2022-11-29T17:50:19.928Z,101590.44
2022-11-29T17:52:48.108Z,101594.44
2022-11-29T17:55:20.528Z,101602.31
2022-11-29T17:57:49.040Z,101605.81
2022-11-29T18:00:20.131Z,101601.00
2022-11-29T18:02:48.287Z,101606.53
2022-11-29T18:05:16.965Z,101608.22
2022-11-29T18:07:58.758Z,101603.66
2022-11-29T18:10:29.007Z,101605.28
2022-11-29T18:12:57.785Z,101604.03
2022-11-29T18:15:27.155Z,101609.88
2022-11-29T18:17:55.133Z,101612.56
2022-11-29T18:20:23.089Z,101611.38
2022-11-29T18:22:51.068Z,101619.63
2022-11-29T18:25:38.179Z,101617.13
2022-11-29T18:28:08.781Z,101623.00
2022-11-29T18:30:38.425Z,101627.00
2022-11-29T18:33:11.259Z,101622.63
2022-11-29T18:35:42.325Z,101621.88
2022-11-29T18:38:15.660Z,101631.56
2022-11-29T18:40:45.795Z,101629.41
2022-11-29T18:43:16.694Z,101629.53
2022-11-29T18:45:49.344Z,101631.75
2022-11-29T18:48:17.364Z,101626.44
2022-11-29T18:50:45.382Z,101637.91
2022-11-29T18:53:14.503Z,101636.06
2022-11-29T18:55:46.121Z,101635.63
2022-11-29T18:58:14.532Z,101627.97
2022-11-29T19:00:44.504Z,101627.19
2022-11-29T19:03:13.940Z,101632.44
2022-11-29T19:05:51.266Z,101633.44
2022-11-29T19:08:19.199Z,101631.53
2022-11-29T19:10:47.321Z,101632.50
2022-11-29T19:13:15.482Z,101632.38
2022-11-29T19:15:43.757Z,101645.69
2022-11-29T19:18:13.284Z,101639.81
2022-11-29T19:20:41.481Z,101644.00
2022-11-29T19:23:09.543Z,101643.28
2022-11-29T19:25:37.691Z,101644.34
2022-11-29T19:28:12.558Z,101641.69
2022-11-29T19:30:42.931Z,101644.41
2022-11-29T19:33:15.958Z,101646.69
2022-11-29T19:35:44.371Z,101643.78
2022-11-29T19:38:13.181Z,101648.50
2022-11-29T19:40:41.788Z,101638.38
2022-11-29T19:43:10.374Z,101648.19
2022-11-29T19:45:40.298Z,101639.81
2022-11-29T19:48:08.828Z,101648.13
2022-11-29T19:50:38.344Z,101647.72
2022-11-29T19:53:06.487Z,101643.34
2022-11-29T19:55:38.167Z,101648.81
2022-11-29T19:58:09.113Z,101642.69
2022-11-29T20:00:37.407Z,101655.41
2022-11-29T20:03:05.801Z,101648.56
2022-11-29T20:05:34.075Z,101654.41
2022-11-29T20:08:03.727Z,101658.53
2022-11-29T20:10:32.520Z,101657.91
2022-11-29T20:13:00.870Z,101657.63
2022-11-29T20:15:29.121Z,101670.06
2022-11-29T20:17:57.395Z,101659.88
2022-11-29T20:20:25.640Z,101662.09
2022-11-29T20:22:53.819Z,101660.38
2022-11-29T20:25:23.496Z,101657.38
2022-11-29T20:27:51.938Z,101662.03
2022-11-29T20:30:20.829Z,101669.69
2022-11-29T20:32:49.421Z,101669.91
2022-11-29T20:35:18.261Z,101658.06
2022-11-29T20:38:05.127Z,101673.28
2022-11-29T20:40:44.729Z,101661.75
2022-11-29T20:43:20.995Z,101666.72
2022-11-29T20:45:51.031Z,101670.28
2022-11-29T20:48:21.956Z,101672.16
2022-11-29T20:50:57.609Z,101675.94
2022-11-29T20:53:35.441Z,101680.56
2022-11-29T20:56:06.169Z,101676.47
2022-11-29T20:58:34.632Z,101681.09
2022-11-29T21:01:03.739Z,101675.97
2022-11-29T21:03:32.271Z,101686.66
2022-11-29T21:06:03.104Z,101682.38
2022-11-29T21:08:31.263Z,101682.78
2022-11-29T21:11:05.493Z,101690.03
2022-11-29T21:13:34.883Z,101689.72
2022-11-29T21:16:03.828Z,101692.25
2022-11-29T21:18:36.689Z,101681.66
2022-11-29T21:21:15.211Z,101685.63
2022-11-29T21:23:58.142Z,101690.91
2022-11-29T21:26:34.897Z,101702.13
2022-11-29T21:29:14.900Z,101707.38
2022-11-29T21:31:43.590Z,101699.13
2022-11-29T21:34:11.992Z,101699.31
2022-11-29T21:36:40.370Z,101694.72
2022-11-29T21:39:12.362Z,101696.38
2022-11-29T21:41:41.826Z,101695.22
2022-11-29T21:44:10.123Z,101701.88
2022-11-29T21:46:38.183Z,101704.09
2022-11-29T21:49:06.392Z,101695.59
2022-11-29T21:51:34.567Z,101697.81
2022-11-29T21:54:02.535Z,101704.44
2022-11-29T21:56:30.605Z,101708.69
2022-11-29T21:59:00.097Z,101710.16
2022-11-29T22:01:28.850Z,101713.75
2022-11-29T22:04:00.096Z,101712.19
2022-11-29T22:06:29.470Z,101715.53
2022-11-29T22:08:58.068Z,101708.72
2022-11-29T22:11:34.181Z,101706.44
2022-11-29T22:14:18.055Z,101712.09
2022-11-29T22:16:48.704Z,101714.41
2022-11-29T22:19:18.307Z,101717.13
2022-11-29T22:21:50.613Z,101717.16
2022-11-29T22:24:20.136Z,101712.66
2022-11-29T22:26:49.520Z,101714.28
2022-11-29T22:29:20.188Z,101716.66
2022-11-29T22:31:50.818Z,101719.97
2022-11-29T22:34:19.041Z,101722.75
2022-11-29T22:36:47.130Z,101714.50
2022-11-29T22:39:15.757Z,101723.88
2022-11-29T22:41:44.742Z,101722.38
2022-11-29T22:44:15.032Z,101724.03
2022-11-29T22:46:44.349Z,101724.41
2022-11-29T22:49:12.281Z,101724.50
2022-11-29T22:51:40.292Z,101726.56
2022-11-29T22:54:10.403Z,101730.00
2022-11-29T22:56:40.581Z,101735.13
2022-11-29T22:59:09.037Z,101730.06
2022-11-29T23:01:39.450Z,101727.63
2022-11-29T23:04:13.167Z,101728.47
2022-11-29T23:06:43.143Z,101736.06
2022-11-29T23:09:15.700Z,101729.31
2022-11-29T23:11:44.673Z,101731.91
2022-11-29T23:14:13.162Z,101735.91
2022-11-29T23:16:41.441Z,101732.69
2022-11-29T23:19:11.044Z,101731.00
2022-11-29T23:21:40.826Z,101737.00
2022-11-29T23:24:09.304Z,101732.06
2022-11-29T23:26:39.888Z,101731.03
2022-11-29T23:29:09.444Z,101730.28
2022-11-29T23:31:37.381Z,101735.50
2022-11-29T23:34:05.473Z,101738.00
2022-11-29T23:36:35.077Z,101722.94
2022-11-29T23:39:05.323Z,101728.19
2022-11-29T23:41:33.365Z,101733.50
2022-11-29T23:44:01.244Z,101730.06
2022-11-29T23:46:29.127Z,101727.63
2022-11-29T23:48:57.019Z,101723.28
2022-11-29T23:51:24.931Z,101730.00
2022-11-29T23:53:56.824Z,101729.09
2022-11-29T23:56:24.881Z,101729.63
2022-11-29T23:58:52.785Z,101729.19
